Meteo Giornale » Osservazioni meteo Stati Uniti (USA) » New York City Central Park

ore: 19:51 - Osservazioni Meteo New York City Central Park
Lat. 40° 47' N Lon. 73° 58' W Alt. 47 metri s.l.m.

poco_nuvoloso America/New_York

31 °C

Poco Nuvoloso

Temp. 24 Ore

23 °C

32 °C

Nord

9.3 Km/h

Dew point 21 °C

Umidità 55 %

Visibilità  11 Km

Il sole sorge alle ore 05:22

Il sole tramonta alle ore 20:31

Data e Ora Cielo e Fenomeni T °C DP °C Um. % Pres. hPa Vis. km Vento km/h
Oggi h: 19:51 poco_nuvoloso Poco Nuvoloso 31 21 55 1009 11 N 9.3
Oggi h: 18:51 molto_nuvoloso Molto Nuvoloso 31 21 55 1009 11 N 11.1
Oggi h: 17:51 nuvoloso Nuvoloso 32 22 55 1010 13 N 7.4
Oggi h: 16:51 molto_nuvoloso Molto Nuvoloso 32 21 52 1011 13 N 9.3
Oggi h: 15:51 poco_nuvoloso Poco Nuvoloso 31 22 58 1011 13 N 9.3
Oggi h: 14:51 poco_nuvoloso Poco Nuvoloso 32 22 55 1012 13 N 0
Oggi h: 13:51 molto_nuvoloso Molto Nuvoloso 31 21 55 1014 13 N 5.5
Oggi h: 12:51 sereno Sereno 32 21 52 1015 13 N 9.3
Oggi h: 11:51 sereno Sereno 31 21 55 1015 13 N 7.4
Oggi h: 10:51 sereno Sereno 29 20 58 1016 13 SO 7.4
Oggi h: 08:51 sereno Sereno 25 19 69 1017 14 O/SO 11.1
Oggi h: 07:51 sereno Sereno 24 18 69 1018 14 N 5.5
Oggi h: 06:51 sereno Sereno 23 18 73 1018 10 O/SO 9.3
Oggi h: 05:51 sereno Sereno 23 18 73 1018 10 O/SO 7.4
Oggi h: 04:51 sereno Sereno 23 17 68 1018 10 O/SO 7.4
Oggi h: 03:51 sereno Sereno 23 17 68 1018 10 O/SO 11.1
Oggi h: 02:51 sereno Sereno 23 17 68 1018 10 N 5.5
Oggi h: 01:51 sereno Sereno 23 16 64 1019 10 N 9.3
Oggi h: 00:51 sereno Sereno 24 15 57 1019 10 N 5.5
Ieri h: 23:51 sereno Sereno 24 14 53 1019 10 N 0
Ieri h: 22:51 sereno Sereno 26 14 47 1018 10 N 5.5
Ieri h: 21:51 sereno Sereno 26 13 44 1019 10 N 0
Ieri h: 20:51 sereno Sereno 26 13 44 1018 10 N 0